createdAt,value
2022-11-29T00:00:20.521Z,0.00
2022-11-29T00:05:19.368Z,0.00
2022-11-29T00:10:19.240Z,0.00
2022-11-29T00:15:19.153Z,0.00
2022-11-29T00:20:19.076Z,0.00
2022-11-29T00:25:19.055Z,0.00
2022-11-29T00:30:18.939Z,0.00
2022-11-29T00:35:18.905Z,0.00
2022-11-29T00:40:18.924Z,0.00
2022-11-29T00:45:18.857Z,0.00
2022-11-29T00:50:18.698Z,0.00
2022-11-29T00:55:18.634Z,0.00
2022-11-29T01:00:18.598Z,0.00
2022-11-29T01:05:18.513Z,0.00
2022-11-29T01:10:18.465Z,0.00
2022-11-29T01:15:18.367Z,0.00
2022-11-29T01:20:18.329Z,0.00
2022-11-29T01:25:18.286Z,0.00
2022-11-29T01:30:18.219Z,0.00
2022-11-29T01:35:18.145Z,0.00
2022-11-29T01:40:18.034Z,0.00
2022-11-29T01:45:18.012Z,0.00
2022-11-29T01:50:17.912Z,0.00
2022-11-29T01:55:17.901Z,0.00
2022-11-29T02:00:17.821Z,0.00
2022-11-29T02:05:17.728Z,0.00
2022-11-29T02:10:17.681Z,0.00
2022-11-29T02:15:17.630Z,0.00
2022-11-29T02:20:17.556Z,0.00
2022-11-29T02:25:17.509Z,0.00
2022-11-29T02:30:17.417Z,0.00
2022-11-29T02:35:17.401Z,0.00
2022-11-29T02:40:17.268Z,0.00
2022-11-29T02:45:17.210Z,0.00
2022-11-29T02:50:17.147Z,0.00
2022-11-29T02:55:17.089Z,0.00
2022-11-29T03:00:17.022Z,0.00
2022-11-29T03:05:16.963Z,0.00
2022-11-29T03:10:16.854Z,0.00
2022-11-29T03:15:16.816Z,0.00
2022-11-29T03:20:16.727Z,0.00
2022-11-29T03:25:16.698Z,0.00
2022-11-29T03:30:16.606Z,0.00
2022-11-29T03:35:16.585Z,0.00
2022-11-29T03:40:16.500Z,0.00
2022-11-29T03:45:16.464Z,0.00
2022-11-29T03:50:16.359Z,0.00
2022-11-29T03:55:16.288Z,0.00
2022-11-29T04:00:16.239Z,0.00
2022-11-29T04:05:16.204Z,0.00
2022-11-29T04:10:16.103Z,0.00
2022-11-29T04:15:16.018Z,0.00
2022-11-29T04:20:15.953Z,0.00
2022-11-29T04:25:15.923Z,0.00
2022-11-29T04:30:15.858Z,0.00
2022-11-29T04:35:15.778Z,0.00
2022-11-29T04:40:15.991Z,0.00
2022-11-29T04:45:15.661Z,0.00
2022-11-29T04:50:15.560Z,0.00
2022-11-29T04:55:22.701Z,0.00
2022-11-29T05:00:16.526Z,0.00
2022-11-29T05:05:15.388Z,0.00
2022-11-29T05:10:15.351Z,0.00
2022-11-29T05:15:15.252Z,0.00
2022-11-29T05:20:15.209Z,0.00
2022-11-29T05:25:15.136Z,0.00
2022-11-29T05:30:15.085Z,0.00
2022-11-29T05:35:15.025Z,0.00
2022-11-29T05:40:14.952Z,0.00
2022-11-29T05:45:14.852Z,0.00
2022-11-29T05:50:14.820Z,0.00
2022-11-29T05:55:14.728Z,0.00
2022-11-29T06:00:14.676Z,0.00
2022-11-29T06:05:14.597Z,0.00
2022-11-29T06:10:14.587Z,0.00
2022-11-29T06:15:14.496Z,0.00
2022-11-29T06:20:14.410Z,0.00
2022-11-29T06:25:14.399Z,0.00
2022-11-29T06:30:14.284Z,0.00
2022-11-29T06:35:14.349Z,0.00
2022-11-29T06:40:14.138Z,0.00
2022-11-29T06:45:14.073Z,0.00
2022-11-29T06:50:14.037Z,5.62
2022-11-29T06:55:13.955Z,11.25
2022-11-29T07:00:13.970Z,11.25
2022-11-29T07:05:13.967Z,16.88
2022-11-29T07:10:15.050Z,22.50
2022-11-29T07:15:13.724Z,22.50
2022-11-29T07:20:13.706Z,28.12
2022-11-29T07:25:13.571Z,39.38
2022-11-29T07:30:13.508Z,45.00
2022-11-29T07:35:13.464Z,50.62
2022-11-29T07:40:13.359Z,61.88
2022-11-29T07:45:13.311Z,73.12
2022-11-29T07:50:13.249Z,84.38
2022-11-29T07:55:18.337Z,95.62
2022-11-29T08:00:14.159Z,101.25
2022-11-29T08:05:13.120Z,112.50
2022-11-29T08:10:12.978Z,118.12
2022-11-29T08:15:12.934Z,123.75
2022-11-29T08:20:12.904Z,135.00
2022-11-29T08:25:12.838Z,151.88
2022-11-29T08:30:12.731Z,163.12
2022-11-29T08:35:12.687Z,168.75
2022-11-29T08:40:12.623Z,174.38
2022-11-29T08:45:12.542Z,180.00
2022-11-29T08:50:12.478Z,168.75
2022-11-29T08:55:12.441Z,157.50
2022-11-29T09:00:12.340Z,157.50
2022-11-29T09:05:12.269Z,151.88
2022-11-29T09:10:12.384Z,151.88
2022-11-29T09:15:12.141Z,146.25
2022-11-29T09:20:12.077Z,140.62
2022-11-29T09:25:12.011Z,146.25
2022-11-29T09:30:11.935Z,157.50
2022-11-29T09:35:11.881Z,163.12
2022-11-29T09:40:11.833Z,168.75
2022-11-29T09:45:11.771Z,168.75
2022-11-29T09:50:11.696Z,168.75
2022-11-29T09:55:11.655Z,168.75
2022-11-29T10:00:11.553Z,151.88
2022-11-29T10:05:11.498Z,157.50
2022-11-29T10:10:11.426Z,163.12
2022-11-29T10:15:11.387Z,163.12
2022-11-29T10:20:11.291Z,163.12
2022-11-29T10:25:11.231Z,168.75
2022-11-29T10:30:11.184Z,168.75
2022-11-29T10:35:11.124Z,168.75
2022-11-29T10:40:11.062Z,163.12
2022-11-29T10:45:10.965Z,151.88
2022-11-29T10:50:10.924Z,146.25
2022-11-29T10:55:10.924Z,140.62
2022-11-29T11:00:10.797Z,135.00
2022-11-29T11:05:10.767Z,135.00
2022-11-29T11:10:10.675Z,135.00
2022-11-29T11:15:10.573Z,135.00
2022-11-29T11:20:10.520Z,129.38
2022-11-29T11:25:10.483Z,129.38
2022-11-29T11:30:10.713Z,129.38
2022-11-29T11:35:15.533Z,129.38
2022-11-29T11:40:11.332Z,135.00
2022-11-29T11:45:10.246Z,135.00
2022-11-29T11:50:10.143Z,129.38
2022-11-29T11:55:10.045Z,135.00
2022-11-29T12:00:09.990Z,135.00
2022-11-29T12:05:09.936Z,135.00
2022-11-29T12:10:09.881Z,129.38
2022-11-29T12:15:09.789Z,123.75
2022-11-29T12:20:09.730Z,123.75
2022-11-29T12:25:09.656Z,123.75
2022-11-29T12:30:09.605Z,118.12
2022-11-29T12:35:09.575Z,112.50
2022-11-29T12:40:09.430Z,118.12
2022-11-29T12:45:09.403Z,123.75
2022-11-29T12:50:09.358Z,123.75
2022-11-29T12:55:09.280Z,118.12
2022-11-29T13:00:09.263Z,118.12
2022-11-29T13:05:09.160Z,123.75
2022-11-29T13:10:13.689Z,123.75
2022-11-29T13:15:10.087Z,118.12
2022-11-29T13:20:08.942Z,112.50
2022-11-29T13:25:09.586Z,101.25
2022-11-29T13:30:08.798Z,84.38
2022-11-29T13:35:08.738Z,73.12
2022-11-29T13:40:08.668Z,67.50
2022-11-29T13:45:08.566Z,56.25
2022-11-29T13:50:08.533Z,45.00
2022-11-29T13:55:08.450Z,39.38
2022-11-29T14:00:08.406Z,33.75
2022-11-29T14:05:08.318Z,28.12
2022-11-29T14:10:08.251Z,22.50
2022-11-29T14:15:08.227Z,22.50
2022-11-29T14:20:08.123Z,22.50
2022-11-29T14:25:21.860Z,16.88
2022-11-29T14:30:08.984Z,16.88
2022-11-29T14:35:07.926Z,11.25
2022-11-29T14:40:07.876Z,11.25
2022-11-29T14:45:07.817Z,5.62
2022-11-29T14:50:08.012Z,5.62
2022-11-29T14:55:07.696Z,5.62
2022-11-29T15:00:07.599Z,0.00
2022-11-29T15:05:07.546Z,0.00
2022-11-29T15:10:07.512Z,0.00
2022-11-29T15:15:07.422Z,0.00
2022-11-29T15:20:07.345Z,0.00
2022-11-29T15:25:07.319Z,0.00
2022-11-29T15:30:07.259Z,0.00
2022-11-29T15:35:07.172Z,0.00
2022-11-29T15:40:07.113Z,0.00
2022-11-29T15:45:07.047Z,0.00
2022-11-29T15:50:06.978Z,0.00
2022-11-29T15:55:06.899Z,0.00
2022-11-29T16:00:06.809Z,0.00
2022-11-29T16:05:06.765Z,0.00
2022-11-29T16:10:06.729Z,0.00
2022-11-29T16:15:06.630Z,0.00
2022-11-29T16:20:06.563Z,0.00
2022-11-29T16:25:06.607Z,0.00
2022-11-29T16:30:06.461Z,0.00
2022-11-29T16:35:06.445Z,0.00
2022-11-29T16:40:06.346Z,0.00
2022-11-29T16:45:06.317Z,0.00
2022-11-29T16:50:06.232Z,0.00
2022-11-29T16:55:06.121Z,0.00
2022-11-29T17:00:06.085Z,0.00
2022-11-29T17:05:05.985Z,0.00
2022-11-29T17:10:05.895Z,0.00
2022-11-29T17:15:05.855Z,0.00
2022-11-29T17:20:05.796Z,0.00
2022-11-29T17:25:05.751Z,0.00
2022-11-29T17:30:05.751Z,0.00
2022-11-29T17:35:05.741Z,0.00
2022-11-29T17:40:05.579Z,0.00
2022-11-29T17:45:05.488Z,0.00
2022-11-29T17:50:05.437Z,0.00
2022-11-29T17:55:05.457Z,0.00
2022-11-29T18:00:05.294Z,0.00
2022-11-29T18:05:05.272Z,0.00
2022-11-29T18:10:05.178Z,0.00
2022-11-29T18:15:05.127Z,0.00
2022-11-29T18:20:05.058Z,0.00
2022-11-29T18:25:30.581Z,0.00
2022-11-29T18:30:05.941Z,0.00
2022-11-29T18:35:04.872Z,0.00
2022-11-29T18:40:04.752Z,0.00
2022-11-29T18:45:04.709Z,0.00
2022-11-29T18:50:04.619Z,0.00
2022-11-29T18:55:04.542Z,0.00
2022-11-29T19:00:04.514Z,0.00
2022-11-29T19:05:04.485Z,0.00
2022-11-29T19:10:04.377Z,0.00
2022-11-29T19:15:04.310Z,0.00
2022-11-29T19:20:04.278Z,0.00
2022-11-29T19:25:04.244Z,0.00
2022-11-29T19:30:04.417Z,0.00
2022-11-29T19:35:04.164Z,0.00
2022-11-29T19:40:03.987Z,0.00
2022-11-29T19:45:21.151Z,0.00
2022-11-29T19:50:04.906Z,0.00
2022-11-29T19:55:03.817Z,0.00
2022-11-29T20:00:03.744Z,0.00
2022-11-29T20:05:03.665Z,0.00
2022-11-29T20:10:03.600Z,0.00
2022-11-29T20:15:03.517Z,0.00
2022-11-29T20:20:03.891Z,0.00
2022-11-29T20:25:03.397Z,0.00
2022-11-29T20:30:03.382Z,0.00
2022-11-29T20:35:03.305Z,0.00
2022-11-29T20:40:03.218Z,0.00
2022-11-29T20:45:03.174Z,0.00
2022-11-29T20:50:03.106Z,0.00
2022-11-29T20:55:03.042Z,0.00
2022-11-29T21:00:02.976Z,0.00
2022-11-29T21:05:02.949Z,0.00
2022-11-29T21:10:02.821Z,0.00
2022-11-29T21:15:02.775Z,0.00
2022-11-29T21:20:02.771Z,0.00
2022-11-29T21:25:02.615Z,0.00
2022-11-29T21:30:02.645Z,0.00
2022-11-29T21:35:02.486Z,0.00
2022-11-29T21:40:02.466Z,0.00
2022-11-29T21:45:02.394Z,0.00
2022-11-29T21:50:04.073Z,0.00
2022-11-29T21:55:02.295Z,0.00
2022-11-29T22:00:02.245Z,0.00
2022-11-29T22:05:02.139Z,0.00
2022-11-29T22:10:02.123Z,0.00
2022-11-29T22:15:02.018Z,0.00
2022-11-29T22:20:01.960Z,0.00
2022-11-29T22:25:01.880Z,0.00
2022-11-29T22:30:01.828Z,0.00
2022-11-29T22:35:01.764Z,0.00
2022-11-29T22:40:01.701Z,0.00
2022-11-29T22:45:02.705Z,0.00
2022-11-29T22:50:01.650Z,0.00
2022-11-29T22:55:05.011Z,0.00
2022-11-29T23:00:01.525Z,0.00
2022-11-29T23:05:01.419Z,0.00
2022-11-29T23:10:01.320Z,0.00
2022-11-29T23:15:01.257Z,0.00
2022-11-29T23:20:01.170Z,0.00
2022-11-29T23:25:01.145Z,0.00
2022-11-29T23:30:01.145Z,0.00
2022-11-29T23:35:01.184Z,0.00
2022-11-29T23:40:00.936Z,0.00
2022-11-29T23:45:00.858Z,0.00
2022-11-29T23:50:00.850Z,0.00
2022-11-29T23:55:00.794Z,0.00
